Time;durP1;ratioP1;P1;durP2;ratioP2;P2;SDS_P1;SDS_P2;PMS_P1;PMS_P2;Temp;Humidity;BMP_temperature;BMP_pressure;BME280_temperature;BME280_humidity;BME280_pressure;Samples;Min_cycle;Max_cycle;Signal;HPM_P1;HPM_P2
2024/02/15 00:02:01;;;;;;;22.67;8.32;;;;;;;;;;5002259;28;25048;-69
2024/02/15 00:04:27;;;;;;;13.68;6.38;;;;;;;;;;5001094;28;25126;-66
2024/02/15 00:06:53;;;;;;;21.17;8.32;;;;;;;;;;4990297;28;25056;-68
2024/02/15 00:09:19;;;;;;;15.05;7.60;;;;;;;;;;4999893;28;25125;-68
2024/02/15 00:11:45;;;;;;;22.00;8.98;;;;;;;;;;5006095;28;25129;-66
2024/02/15 00:14:11;;;;;;;21.17;8.57;;;;;;;;;;5004833;28;25111;-66
2024/02/15 00:16:38;;;;;;;20.60;8.95;;;;;;;;;;5003687;28;25065;-68
2024/02/15 00:19:04;;;;;;;20.00;8.82;;;;;;;;;;5005521;28;25144;-68
2024/02/15 00:21:30;;;;;;;19.20;8.85;;;;;;;;;;5002270;28;25065;-66
2024/02/15 00:23:56;;;;;;;16.35;9.05;;;;;;;;;;5009216;28;25063;-67
2024/02/15 00:26:22;;;;;;;18.85;9.48;;;;;;;;;;5009577;28;25053;-68
2024/02/15 00:28:49;;;;;;;25.65;10.63;;;;;;;;;;5000332;28;25080;-68
2024/02/15 00:31:15;;;;;;;19.55;9.10;;;;;;;;;;5003176;28;25041;-66
2024/02/15 00:33:41;;;;;;;21.15;9.85;;;;;;;;;;5008171;28;25052;-67
2024/02/15 00:36:07;;;;;;;20.05;9.68;;;;;;;;;;5006869;28;25057;-66
2024/02/15 00:38:33;;;;;;;20.38;8.48;;;;;;;;;;5004673;28;25145;-68
2024/02/15 00:40:59;;;;;;;17.42;9.02;;;;;;;;;;5009655;28;25072;-67
2024/02/15 00:43:26;;;;;;;15.38;8.85;;;;;;;;;;5008249;28;25053;-68
2024/02/15 00:45:52;;;;;;;19.17;9.00;;;;;;;;;;5001542;28;25058;-68
2024/02/15 00:48:18;;;;;;;19.40;8.80;;;;;;;;;;5009078;28;25054;-66
2024/02/15 00:50:45;;;;;;;20.27;8.85;;;;;;;;;;5002239;28;25061;-67
2024/02/15 00:53:11;;;;;;;21.17;8.35;;;;;;;;;;4997721;28;25131;-70
2024/02/15 00:55:37;;;;;;;13.48;7.82;;;;;;;;;;5006780;28;25103;-68
2024/02/15 00:58:03;;;;;;;24.65;9.23;;;;;;;;;;4992426;28;25103;-70
2024/02/15 01:00:29;;;;;;;17.17;9.20;;;;;;;;;;5001472;28;25100;-66
2024/02/15 01:02:56;;;;;;;20.27;9.52;;;;;;;;;;5003774;28;25063;-67
2024/02/15 01:05:24;;;;;;;21.38;9.65;;;;;;;;;;5002090;28;25151;-67
2024/02/15 01:07:50;;;;;;;18.63;8.80;;;;;;;;;;5000251;28;25048;-66
2024/02/15 01:10:16;;;;;;;19.73;9.63;;;;;;;;;;4999276;28;25066;-66
2024/02/15 01:12:43;;;;;;;22.00;9.18;;;;;;;;;;5002542;28;25145;-68
2024/02/15 01:15:09;;;;;;;19.70;9.50;;;;;;;;;;5003767;28;25055;-67
2024/02/15 01:17:35;;;;;;;20.70;9.27;;;;;;;;;;5005407;28;25080;-67
2024/02/15 01:20:01;;;;;;;18.35;9.20;;;;;;;;;;4998610;28;25061;-68
2024/02/15 01:22:27;;;;;;;22.15;12.27;;;;;;;;;;5000465;28;25051;-67
2024/02/15 01:24:56;;;;;;;23.90;10.23;;;;;;;;;;5004281;28;25065;-67
2024/02/15 01:27:22;;;;;;;21.75;10.70;;;;;;;;;;5007570;28;25062;-68
2024/02/15 01:29:48;;;;;;;19.55;9.68;;;;;;;;;;5004817;28;25066;-67
2024/02/15 01:32:14;;;;;;;24.00;9.93;;;;;;;;;;5004145;28;25055;-66
2024/02/15 01:34:40;;;;;;;19.63;9.27;;;;;;;;;;5000527;28;25155;-67
2024/02/15 01:37:06;;;;;;;22.08;9.73;;;;;;;;;;5019927;28;25104;-69
2024/02/15 01:39:32;;;;;;;23.75;10.15;;;;;;;;;;5006189;28;25066;-67
2024/02/15 01:41:59;;;;;;;18.67;9.40;;;;;;;;;;5021787;28;25077;-67
2024/02/15 01:44:25;;;;;;;23.13;10.93;;;;;;;;;;5022807;28;25060;-67
2024/02/15 01:46:55;;;;;;;19.55;9.10;;;;;;;;;;5017211;28;25050;-67
2024/02/15 01:49:22;;;;;;;23.25;9.18;;;;;;;;;;5007268;28;25055;-69
2024/02/15 01:51:50;;;;;;;19.77;8.70;;;;;;;;;;5009616;28;25051;-66
2024/02/15 01:54:17;;;;;;;15.85;9.18;;;;;;;;;;5005462;28;25092;-67
2024/02/15 01:56:43;;;;;;;18.88;8.85;;;;;;;;;;5003321;28;25103;-64
2024/02/15 01:59:09;;;;;;;15.95;9.38;;;;;;;;;;5004435;28;25121;-66
2024/02/15 02:01:35;;;;;;;18.05;8.88;;;;;;;;;;4997906;28;25094;-67
2024/02/15 02:04:02;;;;;;;24.50;9.02;;;;;;;;;;5004115;28;25030;-67
2024/02/15 02:06:29;;;;;;;18.92;8.73;;;;;;;;;;5000522;28;25076;-67
2024/02/15 02:08:56;;;;;;;17.33;8.43;;;;;;;;;;4981510;28;25067;-67
2024/02/15 02:11:22;;;;;;;20.90;8.68;;;;;;;;;;5006259;28;25058;-66
2024/02/15 02:13:49;;;;;;;20.98;8.55;;;;;;;;;;5005212;28;25080;-67
2024/02/15 02:16:26;;;;;;;22.50;9.80;;;;;;;;;;5003208;28;25063;-67
2024/02/15 02:18:52;;;;;;;22.02;9.27;;;;;;;;;;5003501;28;25048;-67
2024/02/15 02:21:18;;;;;;;18.15;8.80;;;;;;;;;;5004646;28;25072;-68
2024/02/15 02:23:46;;;;;;;17.38;9.60;;;;;;;;;;4990626;28;25073;-66
2024/02/15 02:26:12;;;;;;;17.85;8.30;;;;;;;;;;5005985;28;25061;-66
2024/02/15 02:28:38;;;;;;;20.60;8.13;;;;;;;;;;4999546;28;25097;-66
2024/02/15 02:31:06;;;;;;;23.48;9.13;;;;;;;;;;5008221;28;25056;-67
2024/02/15 02:33:33;;;;;;;19.42;8.80;;;;;;;;;;5002977;28;25095;-67
2024/02/15 02:35:59;;;;;;;19.10;7.93;;;;;;;;;;5006058;28;25045;-67
2024/02/15 02:38:26;;;;;;;15.98;7.97;;;;;;;;;;5000524;28;25067;-66
2024/02/15 02:40:52;;;;;;;17.50;8.15;;;;;;;;;;4996733;28;25051;-67
2024/02/15 02:43:18;;;;;;;23.02;7.90;;;;;;;;;;5005169;28;25135;-67
2024/02/15 02:45:45;;;;;;;22.73;9.18;;;;;;;;;;4984420;28;25090;-67
2024/02/15 02:48:11;;;;;;;20.83;8.30;;;;;;;;;;4999763;28;25082;-65
2024/02/15 02:50:37;;;;;;;26.63;8.05;;;;;;;;;;5001495;28;25065;-67
2024/02/15 02:53:05;;;;;;;20.77;8.35;;;;;;;;;;4999474;28;25064;-66
2024/02/15 02:55:31;;;;;;;18.38;8.00;;;;;;;;;;5002741;28;25059;-69
2024/02/15 02:57:57;;;;;;;26.17;8.63;;;;;;;;;;5003220;28;25134;-69
2024/02/15 03:00:23;;;;;;;22.98;7.55;;;;;;;;;;4995563;28;25079;-67
2024/02/15 03:02:49;;;;;;;28.25;8.63;;;;;;;;;;4994469;28;25088;-66
2024/02/15 03:05:15;;;;;;;19.17;7.80;;;;;;;;;;4995667;28;25171;-67
2024/02/15 03:07:41;;;;;;;17.83;6.95;;;;;;;;;;4996312;28;25063;-68
2024/02/15 03:10:08;;;;;;;20.88;7.97;;;;;;;;;;5004429;28;25149;-66
2024/02/15 03:12:36;;;;;;;19.95;7.38;;;;;;;;;;5002058;28;25060;-67
2024/02/15 03:15:11;;;;;;;19.58;8.35;;;;;;;;;;4997498;28;25073;-67
2024/02/15 03:17:38;;;;;;;19.23;7.72;;;;;;;;;;5002025;28;25083;-68
2024/02/15 03:20:10;;;;;;;23.33;8.63;;;;;;;;;;4998180;28;25106;-68
2024/02/15 03:22:37;;;;;;;19.70;8.40;;;;;;;;;;5003627;28;25057;-66
2024/02/15 03:25:07;;;;;;;25.65;9.73;;;;;;;;;;4996588;28;25124;-66
2024/02/15 03:27:33;;;;;;;23.65;9.05;;;;;;;;;;5002727;28;25063;-66
2024/02/15 03:30:00;;;;;;;24.98;9.20;;;;;;;;;;5004115;28;25048;-67
2024/02/15 03:32:26;;;;;;;21.67;9.50;;;;;;;;;;5002412;28;25084;-70
2024/02/15 03:34:54;;;;;;;23.77;9.75;;;;;;;;;;5001577;28;25113;-68
2024/02/15 03:37:20;;;;;;;21.38;9.07;;;;;;;;;;5001141;28;25063;-67
2024/02/15 03:39:46;;;;;;;22.95;10.35;;;;;;;;;;4999519;28;25109;-69
2024/02/15 03:42:12;;;;;;;24.65;10.98;;;;;;;;;;5001264;28;25065;-70
2024/02/15 03:44:41;;;;;;;25.45;10.45;;;;;;;;;;5006628;28;25086;-70
2024/02/15 03:47:07;;;;;;;25.95;9.88;;;;;;;;;;5010281;28;25074;-69
2024/02/15 03:49:33;;;;;;;23.15;12.07;;;;;;;;;;5005528;28;25127;-67
2024/02/15 03:52:01;;;;;;;28.05;10.77;;;;;;;;;;5006915;28;25067;-68
2024/02/15 03:54:29;;;;;;;31.27;13.25;;;;;;;;;;5016593;28;25077;-68
2024/02/15 03:56:57;;;;;;;32.28;12.50;;;;;;;;;;5027984;28;25064;-70
2024/02/15 03:59:26;;;;;;;22.40;11.57;;;;;;;;;;5021125;28;25169;-68
2024/02/15 04:01:56;;;;;;;20.15;11.80;;;;;;;;;;5018685;28;25143;-68
2024/02/15 04:04:23;;;;;;;23.63;11.70;;;;;;;;;;5006378;28;25097;-68
2024/02/15 04:06:52;;;;;;;27.13;13.70;;;;;;;;;;5009643;28;25076;-67
2024/02/15 04:09:20;;;;;;;33.95;14.52;;;;;;;;;;4984925;28;25060;-67
2024/02/15 04:11:49;;;;;;;27.73;12.85;;;;;;;;;;5004875;28;25057;-68
2024/02/15 04:14:15;;;;;;;24.42;14.77;;;;;;;;;;5003162;28;25061;-69
2024/02/15 04:16:41;;;;;;;32.15;16.27;;;;;;;;;;4991457;28;25082;-67
2024/02/15 04:19:07;;;;;;;32.47;13.68;;;;;;;;;;5008298;28;25142;-67
2024/02/15 04:21:33;;;;;;;31.10;15.50;;;;;;;;;;5009336;28;25077;-66
2024/02/15 04:23:59;;;;;;;28.40;14.75;;;;;;;;;;5002765;28;25085;-69
2024/02/15 04:26:26;;;;;;;33.53;15.85;;;;;;;;;;5001158;28;25053;-68
2024/02/15 04:28:53;;;;;;;31.67;17.05;;;;;;;;;;5009284;28;25148;-67
2024/02/15 04:31:26;;;;;;;32.55;15.43;;;;;;;;;;5005885;28;25075;-67
2024/02/15 04:33:55;;;;;;;33.55;15.50;;;;;;;;;;5002798;28;25069;-67
2024/02/15 04:36:25;;;;;;;34.38;16.75;;;;;;;;;;5003731;28;25166;-68
2024/02/15 04:38:51;;;;;;;30.75;14.95;;;;;;;;;;5002376;28;25057;-67
2024/02/15 04:41:19;;;;;;;34.28;16.85;;;;;;;;;;5007829;28;25089;-67
2024/02/15 04:43:47;;;;;;;30.67;17.15;;;;;;;;;;5001196;28;25085;-67
2024/02/15 04:46:14;;;;;;;33.55;17.00;;;;;;;;;;5007543;28;25068;-65
2024/02/15 04:48:41;;;;;;;37.38;19.02;;;;;;;;;;5007303;28;25084;-68
2024/02/15 04:51:07;;;;;;;31.98;16.33;;;;;;;;;;5005451;28;25068;-67
2024/02/15 04:53:34;;;;;;;40.65;18.25;;;;;;;;;;5004125;28;25073;-66
2024/02/15 04:56:01;;;;;;;35.17;17.65;;;;;;;;;;5004634;28;25060;-65
2024/02/15 04:58:28;;;;;;;35.90;19.42;;;;;;;;;;5005416;28;25070;-67
2024/02/15 05:00:59;;;;;;;36.58;17.60;;;;;;;;;;5004165;28;25074;-67
2024/02/15 05:03:25;;;;;;;38.00;18.08;;;;;;;;;;5004978;28;25055;-67
2024/02/15 05:05:51;;;;;;;35.58;16.95;;;;;;;;;;5004658;28;25066;-66
2024/02/15 05:08:17;;;;;;;41.03;20.08;;;;;;;;;;5005003;28;25127;-71
2024/02/15 05:10:43;;;;;;;33.72;18.67;;;;;;;;;;5011130;28;25087;-70
2024/02/15 05:13:14;;;;;;;45.63;20.10;;;;;;;;;;5011985;28;25057;-67
2024/02/15 05:15:40;;;;;;;41.40;21.85;;;;;;;;;;5011475;28;25151;-70
2024/02/15 05:18:08;;;;;;;39.63;21.02;;;;;;;;;;5012017;28;25058;-67
2024/02/15 05:20:34;;;;;;;40.83;19.65;;;;;;;;;;5012054;28;25089;-69
2024/02/15 05:23:00;;;;;;;53.10;25.27;;;;;;;;;;5006771;28;25079;-69
2024/02/15 05:25:26;;;;;;;52.28;23.75;;;;;;;;;;5005965;28;25052;-70
2024/02/15 05:27:53;;;;;;;56.53;25.15;;;;;;;;;;5011841;28;25073;-69
2024/02/15 05:30:19;;;;;;;51.03;23.48;;;;;;;;;;5011874;28;25052;-70
2024/02/15 05:32:45;;;;;;;38.60;20.05;;;;;;;;;;5005795;28;25164;-68
2024/02/15 05:35:11;;;;;;;44.80;19.25;;;;;;;;;;5006869;28;25087;-70
2024/02/15 05:37:38;;;;;;;45.75;21.10;;;;;;;;;;5005697;28;25137;-68
2024/02/15 05:40:05;;;;;;;51.15;23.25;;;;;;;;;;5003494;28;25069;-69
2024/02/15 05:42:31;;;;;;;36.40;20.05;;;;;;;;;;5001469;28;25050;-70
2024/02/15 05:45:15;;;;;;;27.48;17.23;;;;;;;;;;5004877;28;25076;-70
2024/02/15 05:47:41;;;;;;;41.95;21.70;;;;;;;;;;5006964;28;25056;-70
2024/02/15 05:50:07;;;;;;;39.55;20.17;;;;;;;;;;5006007;28;25057;-72
2024/02/15 05:52:33;;;;;;;33.70;21.48;;;;;;;;;;5007228;28;25085;-71
2024/02/15 05:54:59;;;;;;;38.35;22.08;;;;;;;;;;5004492;28;25134;-71
2024/02/15 05:57:25;;;;;;;32.80;20.95;;;;;;;;;;5006107;28;25219;-71
2024/02/15 05:59:51;;;;;;;34.90;22.33;;;;;;;;;;4997721;28;25080;-71
2024/02/15 06:02:17;;;;;;;34.22;22.85;;;;;;;;;;5001946;28;25060;-71
2024/02/15 06:04:43;;;;;;;35.22;22.65;;;;;;;;;;5004731;28;25067;-71
2024/02/15 06:07:09;;;;;;;41.42;24.60;;;;;;;;;;4997420;28;25052;-70
2024/02/15 06:09:37;;;;;;;41.17;24.17;;;;;;;;;;5002605;28;25139;-69
2024/02/15 06:12:03;;;;;;;41.55;21.00;;;;;;;;;;5002912;28;25075;-70
2024/02/15 06:14:29;;;;;;;53.83;28.02;;;;;;;;;;5013760;28;25146;-71
2024/02/15 06:16:55;;;;;;;31.83;18.85;;;;;;;;;;5012645;28;25059;-69
2024/02/15 06:19:22;;;;;;;42.97;23.60;;;;;;;;;;5013416;28;25070;-69
2024/02/15 06:21:48;;;;;;;34.40;21.27;;;;;;;;;;5013146;28;25077;-70
2024/02/15 06:24:14;;;;;;;36.28;21.65;;;;;;;;;;5005459;28;25068;-70
2024/02/15 06:26:40;;;;;;;42.80;23.60;;;;;;;;;;5001705;28;25094;-73
2024/02/15 06:40:20;;;;;;;25.98;16.75;;;;;;;;;;5002742;28;25077;-69
2024/02/15 06:42:46;;;;;;;25.35;15.95;;;;;;;;;;5006197;28;25089;-72
2024/02/15 06:45:13;;;;;;;27.42;15.55;;;;;;;;;;5006098;28;25106;-69
2024/02/15 06:47:45;;;;;;;27.73;16.70;;;;;;;;;;5006054;28;25161;-71
2024/02/15 06:50:14;;;;;;;29.98;17.08;;;;;;;;;;4998854;28;25141;-70
2024/02/15 06:52:40;;;;;;;28.40;17.17;;;;;;;;;;5000778;28;25066;-71
2024/02/15 06:55:07;;;;;;;31.42;18.45;;;;;;;;;;5005967;28;25145;-70
2024/02/15 06:57:36;;;;;;;26.13;14.35;;;;;;;;;;5006005;28;25075;-69
2024/02/15 07:00:07;;;;;;;23.00;13.88;;;;;;;;;;5001885;28;25173;-70
2024/02/15 07:02:33;;;;;;;29.65;15.10;;;;;;;;;;4996270;28;25064;-70
2024/02/15 07:04:59;;;;;;;27.05;15.00;;;;;;;;;;5000664;28;25072;-71
2024/02/15 07:07:25;;;;;;;28.25;13.98;;;;;;;;;;5002828;28;25078;-70
2024/02/15 07:09:51;;;;;;;29.38;16.17;;;;;;;;;;5002391;28;25060;-70
2024/02/15 07:12:18;;;;;;;34.63;16.05;;;;;;;;;;4997921;28;25075;-69
2024/02/15 07:14:46;;;;;;;32.35;17.27;;;;;;;;;;4993189;28;25073;-70
2024/02/15 07:17:12;;;;;;;28.63;14.90;;;;;;;;;;4999884;28;25128;-71
2024/02/15 07:19:41;;;;;;;26.15;15.60;;;;;;;;;;5004148;28;25060;-70
2024/02/15 07:22:08;;;;;;;34.00;15.93;;;;;;;;;;5010947;28;25059;-69
2024/02/15 07:24:40;;;;;;;23.95;12.75;;;;;;;;;;5013424;28;25108;-70
2024/02/15 07:27:06;;;;;;;28.10;14.50;;;;;;;;;;5004910;28;25067;-70
2024/02/15 07:29:32;;;;;;;34.78;15.82;;;;;;;;;;5006354;28;25067;-70
2024/02/15 07:31:59;;;;;;;25.63;12.05;;;;;;;;;;5009096;28;25080;-69
2024/02/15 07:34:26;;;;;;;30.73;14.23;;;;;;;;;;5006011;28;25080;-70
2024/02/15 07:36:52;;;;;;;33.75;14.27;;;;;;;;;;4989886;28;25049;-70
2024/02/15 07:39:24;;;;;;;29.02;15.35;;;;;;;;;;5002563;28;25130;-71
2024/02/15 07:41:50;;;;;;;29.75;13.55;;;;;;;;;;5002931;28;25079;-70
2024/02/15 07:44:17;;;;;;;37.70;17.50;;;;;;;;;;5004145;28;25064;-71
2024/02/15 07:46:43;;;;;;;36.50;16.27;;;;;;;;;;5004873;28;25068;-71
2024/02/15 07:49:10;;;;;;;25.35;12.75;;;;;;;;;;4990235;28;25097;-71
2024/02/15 07:51:35;;;;;;;30.45;15.57;;;;;;;;;;4996990;28;25071;-72
2024/02/15 07:54:02;;;;;;;36.20;14.85;;;;;;;;;;5007067;28;25061;-70
2024/02/15 07:56:27;;;;;;;27.88;14.93;;;;;;;;;;5006165;28;25044;-70
2024/02/15 07:58:53;;;;;;;31.35;16.15;;;;;;;;;;5002377;28;25077;-70
2024/02/15 08:01:21;;;;;;;33.47;12.60;;;;;;;;;;5004641;28;25081;-71
2024/02/15 08:03:47;;;;;;;36.40;15.10;;;;;;;;;;5000466;28;25075;-70
2024/02/15 08:06:13;;;;;;;35.10;14.80;;;;;;;;;;5007644;28;25055;-69
2024/02/15 08:08:45;;;;;;;43.30;16.77;;;;;;;;;;4994182;28;25140;-70
2024/02/15 08:11:14;;;;;;;;;;;;;;;;;;5004521;28;25048;-71
2024/02/15 08:13:45;;;;;;;32.33;12.88;;;;;;;;;;5001772;28;25076;-71
2024/02/15 08:16:12;;;;;;;31.70;13.95;;;;;;;;;;5007420;28;25091;-71
2024/02/15 08:18:38;;;;;;;38.67;15.20;;;;;;;;;;5008839;28;25158;-72
2024/02/15 08:21:04;;;;;;;29.73;13.30;;;;;;;;;;5005158;28;25149;-71
2024/02/15 08:23:32;;;;;;;29.77;12.95;;;;;;;;;;4999962;28;25144;-69
2024/02/15 08:25:58;;;;;;;31.88;12.68;;;;;;;;;;5000464;28;25093;-70
2024/02/15 08:28:24;;;;;;;27.20;11.10;;;;;;;;;;5001799;28;25105;-70
2024/02/15 08:30:52;;;;;;;25.95;9.95;;;;;;;;;;5003846;28;25054;-70
2024/02/15 08:33:19;;;;;;;25.25;11.13;;;;;;;;;;5004027;28;25062;-70
2024/02/15 08:35:45;;;;;;;18.38;8.27;;;;;;;;;;5008869;28;25161;-71
2024/02/15 08:38:11;;;;;;;28.77;10.98;;;;;;;;;;5024804;28;25109;-67
2024/02/15 08:40:37;;;;;;;38.33;11.77;;;;;;;;;;5025654;28;25093;-69
2024/02/15 08:43:03;;;;;;;24.70;9.35;;;;;;;;;;5023314;28;25054;-70
2024/02/15 08:45:29;;;;;;;19.80;9.02;;;;;;;;;;5027326;28;25085;-70
2024/02/15 08:47:55;;;;;;;30.40;9.85;;;;;;;;;;5018996;28;25056;-71
2024/02/15 08:50:23;;;;;;;20.38;8.63;;;;;;;;;;4993736;28;25140;-69
2024/02/15 08:52:49;;;;;;;24.55;10.25;;;;;;;;;;5010017;28;25160;-69
2024/02/15 08:55:17;;;;;;;20.23;9.07;;;;;;;;;;5002421;28;25059;-69
2024/02/15 08:57:44;;;;;;;18.70;7.70;;;;;;;;;;5007641;28;25057;-69
2024/02/15 09:00:14;;;;;;;18.10;7.53;;;;;;;;;;5003745;28;25072;-69
2024/02/15 09:02:49;;;;;;;16.30;6.82;;;;;;;;;;5005868;28;25075;-69
2024/02/15 09:05:15;;;;;;;17.67;7.60;;;;;;;;;;5005644;28;25063;-69
2024/02/15 09:07:47;;;;;;;23.05;8.05;;;;;;;;;;5002291;28;25100;-69
2024/02/15 09:10:13;;;;;;;18.17;7.47;;;;;;;;;;4998955;28;25107;-69
2024/02/15 09:12:40;;;;;;;25.20;9.05;;;;;;;;;;5009230;28;25118;-69
2024/02/15 09:15:07;;;;;;;21.55;8.05;;;;;;;;;;5006048;28;25097;-70
2024/02/15 09:17:38;;;;;;;17.67;7.15;;;;;;;;;;5004825;28;25057;-69
2024/02/15 09:20:05;;;;;;;20.20;7.85;;;;;;;;;;5010346;28;25094;-70
2024/02/15 09:22:33;;;;;;;16.75;7.47;;;;;;;;;;5004946;28;25085;-69
2024/02/15 09:24:59;;;;;;;23.77;8.02;;;;;;;;;;5007141;28;25093;-69
2024/02/15 09:27:25;;;;;;;19.63;6.95;;;;;;;;;;5006004;28;24835;-68
2024/02/15 09:29:51;;;;;;;14.35;7.05;;;;;;;;;;5004788;28;25153;-70
2024/02/15 09:32:16;;;;;;;18.67;6.85;;;;;;;;;;5008627;28;25088;-68
2024/02/15 09:34:42;;;;;;;16.80;6.70;;;;;;;;;;5003463;28;25073;-68
2024/02/15 09:37:09;;;;;;;16.25;7.03;;;;;;;;;;4994431;28;25104;-69
2024/02/15 09:39:36;;;;;;;15.45;6.60;;;;;;;;;;4989287;28;25084;-69
2024/02/15 09:42:02;;;;;;;19.95;8.80;;;;;;;;;;5006707;28;25069;-67
2024/02/15 09:44:28;;;;;;;22.55;7.38;;;;;;;;;;5004635;28;25083;-69
2024/02/15 09:47:01;;;;;;;17.95;6.78;;;;;;;;;;5004589;28;25103;-68
2024/02/15 09:49:27;;;;;;;18.83;6.82;;;;;;;;;;5004581;28;25054;-68
2024/02/15 09:51:53;;;;;;;19.35;6.90;;;;;;;;;;4996576;28;25099;-68
2024/02/15 09:54:22;;;;;;;19.00;6.32;;;;;;;;;;4998950;28;25079;-68
2024/02/15 09:56:49;;;;;;;15.38;6.57;;;;;;;;;;5006834;28;25048;-68
2024/02/15 09:59:16;;;;;;;17.52;7.15;;;;;;;;;;5002151;28;25061;-67
2024/02/15 10:01:43;;;;;;;22.77;7.45;;;;;;;;;;4996680;28;25061;-68
2024/02/15 10:04:12;;;;;;;17.58;6.82;;;;;;;;;;5004140;28;25167;-68
2024/02/15 10:06:38;;;;;;;15.43;6.05;;;;;;;;;;5003284;28;25112;-68
2024/02/15 10:09:24;;;;;;;16.33;7.55;;;;;;;;;;4998725;28;25080;-69
2024/02/15 10:12:00;;;;;;;12.07;6.32;;;;;;;;;;5004371;28;25074;-68
2024/02/15 10:14:27;;;;;;;13.93;7.30;;;;;;;;;;5001835;28;25072;-67
2024/02/15 10:16:54;;;;;;;15.77;7.18;;;;;;;;;;5006040;28;25089;-69
2024/02/15 10:19:24;;;;;;;14.50;7.38;;;;;;;;;;5002216;28;25079;-67
2024/02/15 10:21:53;;;;;;;14.40;7.05;;;;;;;;;;5006256;28;25150;-67
2024/02/15 10:24:24;;;;;;;20.08;7.20;;;;;;;;;;5006703;28;25098;-67
2024/02/15 10:26:50;;;;;;;12.75;6.53;;;;;;;;;;5006338;28;25112;-67
2024/02/15 10:29:17;;;;;;;14.95;8.25;;;;;;;;;;5006266;28;25116;-68
2024/02/15 10:31:59;;;;;;;17.60;8.60;;;;;;;;;;5003920;28;25145;-69
2024/02/15 10:34:28;;;;;;;15.48;7.05;;;;;;;;;;4998574;28;25108;-69
2024/02/15 10:37:13;;;;;;;15.15;7.70;;;;;;;;;;5004117;28;25056;-68
2024/02/15 10:39:40;;;;;;;14.10;7.50;;;;;;;;;;4999770;28;25112;-66
2024/02/15 10:42:10;;;;;;;12.25;7.53;;;;;;;;;;5001360;28;25146;-67
2024/02/15 10:44:38;;;;;;;11.93;7.93;;;;;;;;;;5004381;28;25071;-67
2024/02/15 10:47:08;;;;;;;14.18;8.07;;;;;;;;;;5004276;28;25138;-66
2024/02/15 10:49:39;;;;;;;14.23;8.45;;;;;;;;;;5006711;28;25065;-67
2024/02/15 10:52:05;;;;;;;12.35;8.05;;;;;;;;;;5002453;28;25062;-67
2024/02/15 10:54:37;;;;;;;9.80;7.25;;;;;;;;;;4997863;28;25081;-67
2024/02/15 10:57:03;;;;;;;;;;;;;;;;;;5003057;28;25043;-66
2024/02/15 10:59:32;;;;;;;18.88;10.13;;;;;;;;;;4999031;28;25089;-71
2024/02/15 11:01:59;;;;;;;11.77;8.32;;;;;;;;;;5003144;28;25067;-69
2024/02/15 11:04:31;;;;;;;18.10;10.05;;;;;;;;;;5006207;28;25069;-67
2024/02/15 11:06:58;;;;;;;15.30;9.45;;;;;;;;;;5011911;28;25057;-67
2024/02/15 11:09:25;;;;;;;13.65;8.52;;;;;;;;;;4991096;28;25095;-66
2024/02/15 11:11:52;;;;;;;15.65;10.55;;;;;;;;;;5013292;28;25073;-67
2024/02/15 11:14:29;;;;;;;16.90;10.00;;;;;;;;;;5029478;28;25060;-67
2024/02/15 11:17:00;;;;;;;12.70;9.07;;;;;;;;;;4997392;28;25128;-65
2024/02/15 11:19:33;;;;;;;13.70;10.98;;;;;;;;;;4991416;28;25069;-67
2024/02/15 11:22:03;;;;;;;;;;;;;;;;;;5009071;28;25045;-67
2024/02/15 11:24:29;;;;;;;13.75;9.98;;;;;;;;;;4997380;28;25055;-66
2024/02/15 11:27:06;;;;;;;15.63;10.57;;;;;;;;;;5004305;28;25054;-68
2024/02/15 11:29:51;;;;;;;14.85;10.57;;;;;;;;;;5005477;28;25062;-67
2024/02/15 11:32:36;;;;;;;15.45;11.70;;;;;;;;;;5005532;28;25166;-69
2024/02/15 11:35:13;;;;;;;12.40;11.07;;;;;;;;;;5004329;28;25107;-66
2024/02/15 11:37:55;;;;;;;13.32;10.80;;;;;;;;;;5001441;28;25058;-66
2024/02/15 11:40:24;;;;;;;14.13;9.73;;;;;;;;;;5001281;28;25076;-66
2024/02/15 11:42:54;;;;;;;13.02;10.52;;;;;;;;;;4994246;28;25053;-66
2024/02/15 11:45:21;;;;;;;13.48;8.68;;;;;;;;;;5002177;28;25133;-66
2024/02/15 11:47:50;;;;;;;14.18;8.73;;;;;;;;;;5003230;28;26177;-66
2024/02/15 11:50:17;;;;;;;13.38;8.20;;;;;;;;;;5004686;28;25070;-66
2024/02/15 11:52:48;;;;;;;10.75;6.90;;;;;;;;;;5004160;28;25071;-66
2024/02/15 11:55:15;;;;;;;8.90;5.55;;;;;;;;;;5004455;28;25067;-68
2024/02/15 11:57:51;;;;;;;9.48;6.10;;;;;;;;;;4998352;28;25055;-65
2024/02/15 12:19:53;;;;;;;7.65;3.40;;;;;;;;;;5007838;28;25080;-67
2024/02/15 12:22:50;;;;;;;7.30;3.05;;;;;;;;;;5002763;28;25055;-65
2024/02/15 12:25:16;;;;;;;6.88;3.63;;;;;;;;;;4989125;28;25076;-64
2024/02/15 12:27:43;;;;;;;7.60;3.78;;;;;;;;;;5008455;28;25104;-64
2024/02/15 12:30:22;;;;;;;10.30;3.83;;;;;;;;;;5005644;28;25070;-65
2024/02/15 12:32:50;;;;;;;12.07;3.53;;;;;;;;;;5006541;28;25113;-65
2024/02/15 12:35:16;;;;;;;5.28;2.92;;;;;;;;;;5007304;28;25077;-65
2024/02/15 12:37:43;;;;;;;7.78;3.50;;;;;;;;;;5002983;28;25056;-66
2024/02/15 12:40:19;;;;;;;9.15;4.32;;;;;;;;;;5004680;28;25061;-65
2024/02/15 12:42:46;;;;;;;8.00;3.60;;;;;;;;;;5002104;28;25054;-66
2024/02/15 12:45:22;;;;;;;14.20;3.97;;;;;;;;;;5004749;28;25077;-66
2024/02/15 12:47:49;;;;;;;8.23;3.63;;;;;;;;;;4998840;28;25057;-66
2024/02/15 12:50:16;;;;;;;10.25;4.03;;;;;;;;;;5005549;28;25080;-65
2024/02/15 12:52:43;;;;;;;10.68;4.35;;;;;;;;;;5006899;28;25069;-66
2024/02/15 12:55:24;;;;;;;10.75;4.28;;;;;;;;;;5004376;28;25051;-66
2024/02/15 12:57:55;;;;;;;9.80;3.95;;;;;;;;;;5003997;28;25054;-64
2024/02/15 13:00:22;;;;;;;6.53;3.70;;;;;;;;;;5001233;28;25092;-66
2024/02/15 13:02:49;;;;;;;10.07;3.80;;;;;;;;;;5005415;28;25086;-67
2024/02/15 13:05:18;;;;;;;9.43;3.70;;;;;;;;;;5006846;28;25081;-67
2024/02/15 13:07:44;;;;;;;10.70;4.05;;;;;;;;;;5001877;28;25146;-64
2024/02/15 13:10:10;;;;;;;9.85;3.88;;;;;;;;;;5004346;28;25054;-66
2024/02/15 13:12:37;;;;;;;10.50;3.05;;;;;;;;;;5002274;28;25080;-64
2024/02/15 13:15:11;;;;;;;7.25;3.35;;;;;;;;;;5004063;28;25059;-65
2024/02/15 13:17:37;;;;;;;9.25;2.92;;;;;;;;;;4999833;28;25106;-66
2024/02/15 13:20:04;;;;;;;10.10;3.30;;;;;;;;;;5008519;28;25110;-66
2024/02/15 13:22:34;;;;;;;10.70;3.40;;;;;;;;;;5002465;28;25099;-67
2024/02/15 13:25:03;;;;;;;8.98;3.20;;;;;;;;;;5000342;28;25054;-66
2024/02/15 13:27:29;;;;;;;8.30;3.20;;;;;;;;;;5003756;28;25059;-65
2024/02/15 13:29:54;;;;;;;10.52;3.60;;;;;;;;;;5004919;28;25102;-65
2024/02/15 13:32:21;;;;;;;9.75;3.80;;;;;;;;;;4999551;28;25092;-68
2024/02/15 13:34:51;;;;;;;9.93;3.30;;;;;;;;;;5001371;28;25075;-67
2024/02/15 13:37:20;;;;;;;10.27;3.90;;;;;;;;;;5005144;28;25055;-68
2024/02/15 13:39:47;;;;;;;5.80;2.60;;;;;;;;;;5015120;28;25055;-66
2024/02/15 13:42:13;;;;;;;8.68;4.05;;;;;;;;;;5022141;28;25122;-65
2024/02/15 13:44:40;;;;;;;8.07;3.03;;;;;;;;;;5007962;28;25066;-67
2024/02/15 13:47:06;;;;;;;7.90;3.58;;;;;;;;;;5018369;28;25081;-65
2024/02/15 13:49:34;;;;;;;6.13;2.80;;;;;;;;;;5022707;28;25080;-66
2024/02/15 13:52:02;;;;;;;7.70;3.45;;;;;;;;;;5014711;28;25077;-68
2024/02/15 13:54:28;;;;;;;11.73;2.75;;;;;;;;;;5002752;28;25050;-65
2024/02/15 13:56:55;;;;;;;7.43;3.10;;;;;;;;;;4990617;28;25142;-66
2024/02/15 13:59:21;;;;;;;5.20;2.78;;;;;;;;;;5005946;28;25050;-67
2024/02/15 14:01:47;;;;;;;7.65;2.80;;;;;;;;;;5005731;28;25158;-67
2024/02/15 14:04:13;;;;;;;6.97;2.53;;;;;;;;;;5003800;28;25085;-66
2024/02/15 14:06:40;;;;;;;5.07;2.63;;;;;;;;;;5004781;28;25043;-66
2024/02/15 14:09:11;;;;;;;5.47;2.85;;;;;;;;;;4999691;28;25071;-65
2024/02/15 14:11:37;;;;;;;6.20;2.53;;;;;;;;;;5004509;28;25055;-66
2024/02/15 14:14:05;;;;;;;10.60;4.32;;;;;;;;;;5007205;28;25127;-67
2024/02/15 14:16:33;;;;;;;7.85;2.65;;;;;;;;;;5005821;28;25176;-65
2024/02/15 14:18:59;;;;;;;6.60;3.08;;;;;;;;;;5005070;28;25080;-67
2024/02/15 14:21:25;;;;;;;10.68;2.72;;;;;;;;;;5005335;28;25126;-66
2024/02/15 14:23:51;;;;;;;10.57;2.92;;;;;;;;;;5004252;28;25074;-65
2024/02/15 14:26:17;;;;;;;8.77;4.20;;;;;;;;;;5004364;28;25054;-65
2024/02/15 14:28:44;;;;;;;5.07;2.50;;;;;;;;;;4996098;28;25136;-67
2024/02/15 14:33:56;;;;;;;6.85;3.38;;;;;;;;;;4997584;28;25136;-67
2024/02/15 14:36:22;;;;;;;10.52;3.50;;;;;;;;;;5002186;28;25063;-66
2024/02/15 14:38:48;;;;;;;7.90;2.42;;;;;;;;;;4996712;28;25072;-66
2024/02/15 14:41:14;;;;;;;11.90;4.00;;;;;;;;;;4996096;28;25165;-66
2024/02/15 14:43:40;;;;;;;11.40;3.20;;;;;;;;;;5002138;28;25054;-70
2024/02/15 14:46:08;;;;;;;6.35;2.17;;;;;;;;;;5001296;28;25070;-67
2024/02/15 14:48:34;;;;;;;10.75;2.97;;;;;;;;;;5001413;28;25064;-66
2024/02/15 14:51:00;;;;;;;5.65;2.85;;;;;;;;;;4981550;28;25075;-67
2024/02/15 14:53:29;;;;;;;9.07;3.55;;;;;;;;;;4991749;28;25056;-66
2024/02/15 14:55:55;;;;;;;10.38;3.30;;;;;;;;;;5000825;28;25149;-66
2024/02/15 14:58:24;;;;;;;6.72;3.08;;;;;;;;;;4995953;28;25145;-67
2024/02/15 15:00:51;;;;;;;8.75;3.55;;;;;;;;;;4994093;28;25157;-66
2024/02/15 15:03:17;;;;;;;5.75;2.45;;;;;;;;;;5002421;28;25066;-67
2024/02/15 15:13:57;;;;;;;6.68;2.85;;;;;;;;;;4995516;28;25125;-66